Wenatchee, WA

2:20 PM PDT on July 26, 2016 (GMT -0700)
3rd & Princeton | | Change Station

Elev 755 ft 47.43 °N, 120.33 °W | Updated 7 seconds ago

Clear
Clear
95.7 °F
Feels Like 94 °F
N
2.2
Wind Variable Wind from WNW

Today
High -- | Low -- °F
--% Chance of Precip.
Yesterday
High -- | Low -- °F
Precip. -- in
Pressure 29.91 in
Visibility 10.0 miles
Clouds Clear
Heat Index 94 °F
Dew Point 56 °F
Humidity 27%
Rainfall 0.00 in
Snow Depth Not available.
5:32 AM 8:42 PM
Waning Gibbous, 51% visible
METAR KEAT 262055Z AUTO 26006KT 10SM CLR 33/10 A2994 RMK AO2 SLP127 T03280100 58014
Pressure 29.91 in
Visibility 10.0 miles
Clouds Clear
Heat Index 94 °F
Dew Point 56 °F
Humidity 27%
Rainfall 0.00 in
Snow Depth Not available.
5:32 AM 8:42 PM
Waning Gibbous, 51% visible
METAR KEAT 262055Z AUTO 26006KT 10SM CLR 33/10 A2994 RMK AO2 SLP127 T03280100 58014

10-Day Weather Forecast

Almanac

Astronomy

Jul. 26, 2016 Rise Set
Actual Time
Civil Twilight
Nautical Twilight
Astronomical Twilight
Moon
Length of Visible Light
Length of Day
Tomorrow will be .
, % of the Moon is Illuminated

Today's Extremes

State Highs State Lows

Community

WunderPhotos

Upload Photos

1,927,688 photos uploaded!

WunderBlog® & News

Nearby

Air Quality

  Air Quality AQ Index Pollutant
Not available.

Snow Depth

Station Depth Elevation

Earthquake Activity

City Distance Mag. Time & Date
Minimum magnitude displayed is 2.5.

Coastal Water Temperatures

Place Temperature

Stations

Nearby Weather Stations

Station Location Temp. Windchill Dew Point Humidity Wind Precip. Elev Updated Type
                   

Watches & Warnings

There are currently no watches in effect.